• Join FlightAware (Why Join?)
  • Login
  • US Flag 
11:09PM EDT


 

Airport Tracker/Info


-or-


 

Live Flight TrackerFlight Track Log ✈ N966QS ✈ 05-May-2013 ✈ KPDK - KFFC

Flight Track Log - Related Links

Times and Time Zones

All times are in EDT time to prevent confusion due to time zone crossing. See the N966QS flight status page for this flight to view local times or setup timezone preferences in your user account.

Time Position Orientation Groundspeed Altitude Reporting Facility
EDT Latitude Longitude Course Direction KTS MPH feet Rate Location/Type
07:03AM 33.8667 -84.3167 196° South 181 208 1,700  Level Atlanta TRACON
07:04AM 33.8167 -84.3667 220° Southwest 215 247 4,200 1,680 Climbing Atlanta TRACON
07:05AM 33.7833 -84.3833 203° Southwest 206 237 4,900 420 Climbing Atlanta TRACON
07:06AM 33.7167 -84.4000 192° South 215 247 5,000  Climbing Atlanta TRACON
07:07AM 33.6500 -84.4000 180° South 218 251 5,000  Level Atlanta TRACON
07:08AM 33.6000 -84.3833 164° South 233 268 5,000  Level Atlanta TRACON
07:09AM 33.5446 -84.4685 196° South  Level FlightAware Approximate
07:09AM 33.5333 -84.3833 180° South 209 241 5,000  Level Atlanta TRACON
07:10AM 33.4833 -84.3667 164° South 231 266 4,800 -900 Descending Atlanta TRACON
07:11AM 33.4167 -84.3667 180° South 212 244 3,200 -960 Descending Atlanta TRACON
07:12AM 33.3667 -84.3500 164° South 215 247 3,000 -120 Descending Atlanta TRACON
07:13AM 33.3000 -84.3500 180° South 214 246 3,000  Level Atlanta TRACON
07:14AM 33.2667 -84.3833 220° Southwest 185 213 3,000  Level Atlanta TRACON
07:15AM 33.2667 -84.4333 270° West 151 174 3,000 -240 Level Atlanta TRACON
07:16AM 33.3000 -84.4833 309° West 142 163 2,600 -540 Descending Atlanta TRACON
07:17AM 33.3167 -84.5167 301° West 119 137 2,000 -660 Descending Atlanta TRACON
07:18AM 33.3333 -84.5333 320° Northwest 125 144 1,400 -180 Descending Atlanta TRACON
07:19AM 33.3500 -84.5667 301° West 137 158 1,700 660 Climbing Atlanta TRACON
07:20AM 33.3500 -84.6333 270° West 199 229 2,900 540 Climbing Atlanta TRACON
07:21AM 33.3000 -84.6333 180° South 211 243 2,900  Level Atlanta TRACON
07:22AM 33.2500 -84.6000 151° Southeast 225 259 2,900  Level Atlanta TRACON
07:23AM 33.2000 -84.5500 140° Southeast 230 265 2,900  Level Atlanta TRACON
07:24AM 33.1833 -84.4833 107° East 229 264 2,900  Level Atlanta TRACON
07:25AM 33.2167 -84.4333 51° Northeast 199 229 2,900  Level Atlanta TRACON
07:26AM 33.2667 -84.4500 344° North 162 186 2,900  Level Atlanta TRACON